EDT,Max TemperatureF,Mean TemperatureF,Min TemperatureF,Max Dew PointF,MeanDew PointF,Min DewpointF,Max Humidity, Mean Humidity, Min Humidity, Max Sea Level PressureIn, Mean Sea Level PressureIn, Min Sea Level PressureIn, Max VisibilityMiles, Mean VisibilityMiles, Min VisibilityMiles, Max Wind SpeedMPH, Mean Wind SpeedMPH, Max Gust SpeedMPH,PrecipitationIn, CloudCover, Events, WindDirDegrees
2013-3-1,44,38,32,32,30,27,100,73,53,29.81,29.73,29.64,10,10,5,13,4,18,0.00,6,,311
2013-3-2,41,36,32,27,24,21,75,63,49,29.81,29.78,29.73,10,10,10,12,6,21,0.00,6,,319
2013-3-3,37,32,28,23,20,18,69,60,48,29.80,29.76,29.72,10,10,10,14,7,22,0.00,5,,308
2013-3-4,41,36,32,23,21,18,65,57,45,29.95,29.87,29.80,10,10,10,16,9,28,0.00,4,,296
2013-3-5,46,39,32,30,26,23,87,61,46,30.03,29.98,29.93,10,10,10,12,5,17,0.00,2,,353
2013-3-6,39,36,33,36,33,30,93,83,75,29.92,29.81,29.77,10,9,5,24,12,39,0.00,4,,66
2013-3-7,,,,,,,,,,,,,,,,,,,,,,
2013-3-8,44,38,33,32,29,27,93,68,57,30.23,30.13,30.06,10,9,1,13,9,26,0.01,5,,331
2013-3-9,62,47,32,27,22,12,75,48,14,30.31,30.25,30.21,10,10,10,9,5,,0.00,0,,340
2013-3-10,59,44,28,36,29,21,93,62,31,30.36,30.30,30.25,10,10,10,10,3,,0.00,0,,133
2013-3-11,60,48,37,48,42,34,100,79,45,30.29,30.16,30.05,10,7,1,10,5,,0.00,6,,159
2013-3-12,59,50,42,55,48,34,94,84,66,30.03,29.84,29.68,10,7,1,16,8,32,0.61,6,,191
2013-3-13,50,42,33,34,29,23,87,62,43,29.95,29.89,29.83,10,10,10,16,7,28,0.00,1,,281
2013-3-14,41,36,32,23,17,12,69,46,31,30.00,29.96,29.92,10,10,10,20,11,33,0.00,2,,289
2013-3-15,51,40,30,32,22,12,60,47,37,30.02,29.88,29.73,10,10,10,17,7,25,0.00,3,,260
2013-3-16,46,40,33,32,30,23,93,77,52,29.92,29.81,29.75,10,7,1,10,4,,0.08,7,,31
2013-3-17,41,36,30,32,24,19,100,68,49,30.29,30.13,29.92,10,10,5,10,3,18,0.00,2,,332
2013-3-18,41,36,30,36,25,14,100,71,48,30.35,30.21,29.90,10,8,2,16,6,22,0.29,3,,77
2013-3-19,51,43,35,37,32,19,100,77,30,29.88,29.78,29.70,10,7,1,14,8,26,0.15,5,,354
2013-3-20,46,40,33,27,20,16,70,47,29,29.92,29.86,29.78,10,10,10,20,9,24,0.00,1,,271
2013-3-21,39,36,32,32,20,10,100,61,33,29.82,29.75,29.67,10,9,2,13,6,21,0.00,3,,323
2013-3-22,42,36,30,23,20,14,69,56,42,29.93,29.84,29.77,10,10,10,16,8,30,0.00,2,,275
2013-3-23,48,40,32,21,21,19,64,50,34,29.96,29.92,29.86,10,10,10,14,8,25,0.00,2,,297
2013-3-24,46,37,28,27,22,19,80,54,34,29.98,29.84,29.67,10,10,10,9,2,,0.00,1,,356
2013-3-25,37,35,33,34,32,27,100,86,65,29.69,29.56,29.47,10,6,0,14,5,22,0.24,7,,24
2013-3-26,50,42,33,36,33,27,100,78,40,29.90,29.76,29.64,10,8,5,9,4,16,0.00,4,,282
2013-3-27,50,41,32,34,31,25,100,69,37,30.03,29.95,29.90,10,10,10,14,4,24,0.00,2,,290
2013-3-28,50,42,35,32,29,25,81,61,40,30.15,30.05,30.00,10,10,10,13,5,21,0.00,4,,304
2013-3-29,53,42,32,32,29,27,87,57,40,30.18,30.14,30.10,10,10,10,10,4,17,0.00,3,,302
2013-3-30,59,46,32,32,29,23,93,67,27,30.20,30.14,30.09,10,10,10,10,2,9,0.00,0,,247
2013-3-31,59,46,32,46,37,30,100,74,38,30.12,29.95,29.72,10,8,2,13,4,22,0.04,3,,144